Maran Castor — SXLH — position and weather

sailwx.info

Track history (hours):
 
Tides and Currents Weather Stations Pressure Air Temp Water Temp Dewpoint Dewpoint Depression Visibility Wind Speed Wind Dir Waves Ship Positions

Maran Castor

Last reported at 2014-Sep-18 04:18 UTC. Time now 2014-Sep-18 11:37 UTC.
Position N 29°57' E 121°49'.

Length 332 m; draft 14.2 m.

Type: Tanker. MMSI: 239808000.

Date/timePositionNaut miles runAvg speedWind from/ knotsBaromVisibWave heightAir tempDewpointWater temp
2014-Sep-18 04:18N 29°57' E 121°49'1 0.9
2014-Sep-18 03:32N 29°57' E 121°50'7 6.9
2014-Sep-18 02:33N 29°58' E 121°58'10 9.9
2014-Sep-18 01:33N 29°55' E 122°09'1111.0
2014-Sep-18 00:33N 29°47' E 122°17'8 8.0
2014-Sep-17 23:34N 29°44' E 122°25'7 7.2
2014-Sep-17 22:33N 29°42' E 122°33'1 0.7
2014-Sep-17 21:27N 29°42' E 122°34'0 0.0
2014-Sep-17 20:15N 29°42' E 122°34'0 0.0
2014-Sep-17 19:15N 29°42' E 122°34'0 0.1
2014-Sep-17 18:27N 29°42' E 122°34'0 0.0
2014-Sep-17 14:21N 29°41' E 122°34'0 0.1
2014-Sep-17 12:21N 29°41' E 122°34'0 0.0
2014-Sep-17 08:27N 29°42' E 122°34'0 0.1
2014-Sep-17 04:15N 29°41' E 122°34'0 0.0
2014-Sep-17 03:21N 29°41' E 122°34'0 0.1
2014-Sep-17 02:21N 29°41' E 122°34'0 0.1
2014-Sep-17 01:27N 29°41' E 122°34'0 0.1
2014-Sep-16 23:15N 29°41' E 122°34'0 0.1
2014-Sep-16 22:21N 29°42' E 122°34'0 0.0
2014-Sep-16 21:27N 29°42' E 122°34'0 0.0
2014-Sep-16 20:27N 29°42' E 122°34'0 0.1
2014-Sep-16 19:27N 29°42' E 122°34'0 0.1
2014-Sep-16 18:27N 29°42' E 122°34'0 0.0
2014-Sep-16 17:09N 29°42' E 122°34'0 0.0
2014-Sep-16 16:27N 29°42' E 122°34'0 0.1
2014-Sep-16 15:27N 29°41' E 122°34'0 0.2
2014-Sep-16 13:27N 29°41' E 122°34'2 2.4
2014-Sep-16 12:33N 29°42' E 122°36'4 3.7
2014-Sep-16 11:33N 29°40' E 122°33'9 8.9
2014-Sep-16 10:33N 29°43' E 122°23'1211.7
2014-Sep-16 09:33N 29°50' E 122°13'1010.2
2014-Sep-16 08:33N 29°55' E 122°03'3 1.3
2014-Sep-16 06:27N 29°55' E 121°60'0 0.0
2014-Sep-16 05:15N 29°55' E 121°60'0 0.0
2014-Sep-16 04:33N 29°55' E 121°60'0 0.0
2014-Sep-16 03:33N 29°55' E 121°60'0 0.0
2014-Sep-16 02:33N 29°55' E 121°60'0 0.0
2014-Sep-16 01:33N 29°55' E 121°60'0 0.0
2014-Sep-16 00:09N 29°55' E 121°60'0 0.0
2014-Sep-15 23:33N 29°55' E 121°60'0 0.0
2014-Sep-15 22:27N 29°55' E 121°60'0 0.0
2014-Sep-15 21:33N 29°55' E 121°60'0 0.0
2014-Sep-15 20:09N 29°55' E 121°60'0 0.0
2014-Sep-15 19:33N 29°55' E 121°60'0 0.0
2014-Sep-15 18:27N 29°55' E 121°60'0 0.0
2014-Sep-15 17:33N 29°55' E 121°60'0 0.0
2014-Sep-15 16:33N 29°55' E 121°60'0 0.0
2014-Sep-15 15:33N 29°55' E 121°60'0 0.0
2014-Sep-15 14:27N 29°55' E 121°60'0 0.0
2014-Sep-15 13:33N 29°55' E 121°60'0 0.0
2014-Sep-15 12:33N 29°55' E 121°60'0 0.0
2014-Sep-15 11:27N 29°55' E 121°60'0 0.0
2014-Sep-15 10:33N 29°55' E 121°60'0 0.0
2014-Sep-15 05:33N 29°55' E 121°60'0 0.0
2014-Sep-15 04:33N 29°55' E 121°60'0 0.0
2014-Sep-15 03:33N 29°55' E 121°60'0 0.0
2014-Sep-14 16:15N 29°55' E 121°60'0 0.0
2014-Sep-14 15:21N 29°55' E 121°60'0 0.0
2014-Sep-14 14:27N 29°55' E 121°60'0 0.0
2014-Sep-14 13:15N 29°55' E 121°60'0 0.0
2014-Sep-14 12:27N 29°55' E 121°60'0 0.0
2014-Sep-14 11:21N 29°55' E 121°60'0 0.0
2014-Sep-14 10:33N 29°55' E 121°60'0 0.0
2014-Sep-14 09:24N 29°55' E 121°60'0 0.4
2014-Sep-14 08:33N 29°56' E 122°00'5 4.9
2014-Sep-14 07:32N 29°56' E 122°06'1010.0
2014-Sep-14 06:33N 29°49' E 122°14'1211.6
2014-Sep-14 05:33N 29°43' E 122°26'10 9.4
2014-Sep-14 04:28N 29°40' E 122°37'0 0.0
2014-Sep-13 16:11N 29°41' E 122°36'1 0.0
2014-Sep-12 10:32N 29°40' E 122°37'  
Track history (hours):
 
Tides and Currents Weather Stations Pressure Air Temp Water Temp Dewpoint Dewpoint Depression Visibility Wind Speed Wind Dir Waves Ship Positions

Maran Castor

Last reported at 2014-Sep-18 04:18 UTC. Time now 2014-Sep-18 11:37 UTC.
Position N 29°57' E 121°49'.

Length 332 m; draft 14.2 m.

Type: Tanker. MMSI: 239808000.

Date/timePositionNaut miles runAvg speedWind from/ knotsBaromVisibWave heightAir tempDewpointWater temp
2014-Sep-18 04:18N 29°57' E 121°49'1 0.9
2014-Sep-18 03:32N 29°57' E 121°50'7 6.9
2014-Sep-18 02:33N 29°58' E 121°58'10 9.9
2014-Sep-18 01:33N 29°55' E 122°09'1111.0
2014-Sep-18 00:33N 29°47' E 122°17'8 8.0
2014-Sep-17 23:34N 29°44' E 122°25'7 7.2
2014-Sep-17 22:33N 29°42' E 122°33'1 0.7
2014-Sep-17 21:27N 29°42' E 122°34'0 0.0
2014-Sep-17 20:15N 29°42' E 122°34'0 0.0
2014-Sep-17 19:15N 29°42' E 122°34'0 0.1
2014-Sep-17 18:27N 29°42' E 122°34'0 0.0
2014-Sep-17 14:21N 29°41' E 122°34'0 0.1
2014-Sep-17 12:21N 29°41' E 122°34'0 0.0
2014-Sep-17 08:27N 29°42' E 122°34'0 0.1
2014-Sep-17 04:15N 29°41' E 122°34'0 0.0
2014-Sep-17 03:21N 29°41' E 122°34'0 0.1
2014-Sep-17 02:21N 29°41' E 122°34'0 0.1
2014-Sep-17 01:27N 29°41' E 122°34'0 0.1
2014-Sep-16 23:15N 29°41' E 122°34'0 0.1
2014-Sep-16 22:21N 29°42' E 122°34'0 0.0
2014-Sep-16 21:27N 29°42' E 122°34'0 0.0
2014-Sep-16 20:27N 29°42' E 122°34'0 0.1
2014-Sep-16 19:27N 29°42' E 122°34'0 0.1
2014-Sep-16 18:27N 29°42' E 122°34'0 0.0
2014-Sep-16 17:09N 29°42' E 122°34'0 0.0
2014-Sep-16 16:27N 29°42' E 122°34'0 0.1
2014-Sep-16 15:27N 29°41' E 122°34'0 0.2
2014-Sep-16 13:27N 29°41' E 122°34'2 2.4
2014-Sep-16 12:33N 29°42' E 122°36'4 3.7
2014-Sep-16 11:33N 29°40' E 122°33'9 8.9
2014-Sep-16 10:33N 29°43' E 122°23'1211.7
2014-Sep-16 09:33N 29°50' E 122°13'1010.2
2014-Sep-16 08:33N 29°55' E 122°03'3 1.3
2014-Sep-16 06:27N 29°55' E 121°60'0 0.0
2014-Sep-16 05:15N 29°55' E 121°60'0 0.0
2014-Sep-16 04:33N 29°55' E 121°60'0 0.0
2014-Sep-16 03:33N 29°55' E 121°60'0 0.0
2014-Sep-16 02:33N 29°55' E 121°60'0 0.0
2014-Sep-16 01:33N 29°55' E 121°60'0 0.0
2014-Sep-16 00:09N 29°55' E 121°60'0 0.0
2014-Sep-15 23:33N 29°55' E 121°60'0 0.0
2014-Sep-15 22:27N 29°55' E 121°60'0 0.0
2014-Sep-15 21:33N 29°55' E 121°60'0 0.0
2014-Sep-15 20:09N 29°55' E 121°60'0 0.0
2014-Sep-15 19:33N 29°55' E 121°60'0 0.0
2014-Sep-15 18:27N 29°55' E 121°60'0 0.0
2014-Sep-15 17:33N 29°55' E 121°60'0 0.0
2014-Sep-15 16:33N 29°55' E 121°60'0 0.0
2014-Sep-15 15:33N 29°55' E 121°60'0 0.0
2014-Sep-15 14:27N 29°55' E 121°60'0 0.0
2014-Sep-15 13:33N 29°55' E 121°60'0 0.0
2014-Sep-15 12:33N 29°55' E 121°60'0 0.0
2014-Sep-15 11:27N 29°55' E 121°60'0 0.0
2014-Sep-15 10:33N 29°55' E 121°60'0 0.0
2014-Sep-15 05:33N 29°55' E 121°60'0 0.0
2014-Sep-15 04:33N 29°55' E 121°60'0 0.0
2014-Sep-15 03:33N 29°55' E 121°60'0 0.0
2014-Sep-14 16:15N 29°55' E 121°60'0 0.0
2014-Sep-14 15:21N 29°55' E 121°60'0 0.0
2014-Sep-14 14:27N 29°55' E 121°60'0 0.0
2014-Sep-14 13:15N 29°55' E 121°60'0 0.0
2014-Sep-14 12:27N 29°55' E 121°60'0 0.0
2014-Sep-14 11:21N 29°55' E 121°60'0 0.0
2014-Sep-14 10:33N 29°55' E 121°60'0 0.0
2014-Sep-14 09:24N 29°55' E 121°60'0 0.4
2014-Sep-14 08:33N 29°56' E 122°00'5 4.9
2014-Sep-14 07:32N 29°56' E 122°06'1010.0
2014-Sep-14 06:33N 29°49' E 122°14'1211.6
2014-Sep-14 05:33N 29°43' E 122°26'10 9.4
2014-Sep-14 04:28N 29°40' E 122°37'0 0.0
2014-Sep-13 16:11N 29°41' E 122°36'1 0.0
2014-Sep-12 10:32N 29°40' E 122°37'  

Dump ship's entire track history